sensor_id;sensor_type;location;lat;lon;timestamp;P1;durP1;ratioP1;P2;durP2;ratioP2
55993;SDS011;67425;52.126;20.638;2023-02-01T00:01:41;3.38;;;3.08;;
55993;SDS011;67425;52.126;20.638;2023-02-01T00:04:07;13.40;;;8.13;;
55993;SDS011;67425;52.126;20.638;2023-02-01T00:06:32;14.98;;;8.73;;
55993;SDS011;67425;52.126;20.638;2023-02-01T00:08:58;5.63;;;5.10;;
55993;SDS011;67425;52.126;20.638;2023-02-01T00:11:23;4.53;;;4.05;;
55993;SDS011;67425;52.126;20.638;2023-02-01T00:13:49;7.10;;;3.80;;
55993;SDS011;67425;52.126;20.638;2023-02-01T00:16:16;6.55;;;4.75;;
55993;SDS011;67425;52.126;20.638;2023-02-01T00:18:44;7.40;;;5.82;;
55993;SDS011;67425;52.126;20.638;2023-02-01T00:21:11;6.25;;;5.45;;
55993;SDS011;67425;52.126;20.638;2023-02-01T00:23:37;6.75;;;4.28;;
55993;SDS011;67425;52.126;20.638;2023-02-01T00:26:04;5.72;;;4.55;;
55993;SDS011;67425;52.126;20.638;2023-02-01T00:28:32;2.88;;;2.67;;
55993;SDS011;67425;52.126;20.638;2023-02-01T00:30:59;4.35;;;3.15;;
55993;SDS011;67425;52.126;20.638;2023-02-01T00:33:26;8.43;;;2.90;;
55993;SDS011;67425;52.126;20.638;2023-02-01T00:35:59;2.95;;;2.30;;
55993;SDS011;67425;52.126;20.638;2023-02-01T00:38:31;2.72;;;2.22;;
55993;SDS011;67425;52.126;20.638;2023-02-01T00:41:04;2.45;;;1.75;;
55993;SDS011;67425;52.126;20.638;2023-02-01T00:43:31;1.17;;;1.08;;
55993;SDS011;67425;52.126;20.638;2023-02-01T00:45:57;4.57;;;2.20;;
55993;SDS011;67425;52.126;20.638;2023-02-01T00:48:23;5.65;;;1.58;;
55993;SDS011;67425;52.126;20.638;2023-02-01T00:50:49;4.40;;;1.27;;
55993;SDS011;67425;52.126;20.638;2023-02-01T00:53:14;4.78;;;1.75;;
55993;SDS011;67425;52.126;20.638;2023-02-01T00:55:40;4.60;;;1.92;;
55993;SDS011;67425;52.126;20.638;2023-02-01T00:58:05;4.55;;;1.80;;
55993;SDS011;67425;52.126;20.638;2023-02-01T01:00:34;5.35;;;1.73;;
55993;SDS011;67425;52.126;20.638;2023-02-01T01:02:59;3.72;;;1.80;;
55993;SDS011;67425;52.126;20.638;2023-02-01T01:05:25;1.48;;;1.23;;
55993;SDS011;67425;52.126;20.638;2023-02-01T01:07:52;2.08;;;1.50;;
55993;SDS011;67425;52.126;20.638;2023-02-01T01:10:18;4.50;;;1.52;;
55993;SDS011;67425;52.126;20.638;2023-02-01T01:12:43;5.93;;;2.45;;
55993;SDS011;67425;52.126;20.638;2023-02-01T01:15:09;9.82;;;2.03;;
55993;SDS011;67425;52.126;20.638;2023-02-01T01:17:34;6.97;;;1.33;;
55993;SDS011;67425;52.126;20.638;2023-02-01T01:20:00;4.57;;;1.25;;
55993;SDS011;67425;52.126;20.638;2023-02-01T01:22:25;6.72;;;0.75;;
55993;SDS011;67425;52.126;20.638;2023-02-01T01:24:50;5.22;;;1.30;;
55993;SDS011;67425;52.126;20.638;2023-02-01T01:27:16;7.90;;;1.75;;
55993;SDS011;67425;52.126;20.638;2023-02-01T01:29:47;6.35;;;1.17;;
55993;SDS011;67425;52.126;20.638;2023-02-01T01:32:13;1.65;;;1.20;;
55993;SDS011;67425;52.126;20.638;2023-02-01T01:34:38;2.05;;;1.25;;
55993;SDS011;67425;52.126;20.638;2023-02-01T01:37:03;2.90;;;1.83;;
55993;SDS011;67425;52.126;20.638;2023-02-01T01:39:29;8.30;;;1.58;;
55993;SDS011;67425;52.126;20.638;2023-02-01T01:41:54;11.10;;;2.22;;
55993;SDS011;67425;52.126;20.638;2023-02-01T01:47:23;5.68;;;1.95;;
55993;SDS011;67425;52.126;20.638;2023-02-01T01:49:50;4.90;;;2.15;;
55993;SDS011;67425;52.126;20.638;2023-02-01T01:52:15;7.72;;;2.30;;
55993;SDS011;67425;52.126;20.638;2023-02-01T01:54:42;4.50;;;2.05;;
55993;SDS011;67425;52.126;20.638;2023-02-01T01:57:32;18.77;;;2.42;;
55993;SDS011;67425;52.126;20.638;2023-02-01T02:00:11;5.22;;;2.00;;
55993;SDS011;67425;52.126;20.638;2023-02-01T02:02:40;11.32;;;1.75;;
55993;SDS011;67425;52.126;20.638;2023-02-01T02:05:08;6.38;;;1.40;;
55993;SDS011;67425;52.126;20.638;2023-02-01T02:07:38;7.05;;;2.10;;
55993;SDS011;67425;52.126;20.638;2023-02-01T02:10:08;8.43;;;1.98;;
55993;SDS011;67425;52.126;20.638;2023-02-01T02:12:37;3.00;;;1.42;;
55993;SDS011;67425;52.126;20.638;2023-02-01T02:15:04;3.50;;;1.23;;
55993;SDS011;67425;52.126;20.638;2023-02-01T02:34:15;6.93;;;1.58;;
55993;SDS011;67425;52.126;20.638;2023-02-01T02:36:43;10.68;;;1.73;;
55993;SDS011;67425;52.126;20.638;2023-02-01T02:39:30;5.95;;;1.45;;
55993;SDS011;67425;52.126;20.638;2023-02-01T02:45:28;11.60;;;1.63;;
55993;SDS011;67425;52.126;20.638;2023-02-01T02:48:20;7.15;;;1.85;;
55993;SDS011;67425;52.126;20.638;2023-02-01T02:53:57;13.13;;;2.03;;
55993;SDS011;67425;52.126;20.638;2023-02-01T02:56:46;3.58;;;1.27;;
55993;SDS011;67425;52.126;20.638;2023-02-01T02:59:32;3.25;;;1.08;;
55993;SDS011;67425;52.126;20.638;2023-02-01T03:02:18;6.85;;;1.60;;
55993;SDS011;67425;52.126;20.638;2023-02-01T03:05:04;19.13;;;2.03;;
55993;SDS011;67425;52.126;20.638;2023-02-01T03:10:24;5.93;;;1.75;;
55993;SDS011;67425;52.126;20.638;2023-02-01T03:13:06;11.65;;;2.47;;
55993;SDS011;67425;52.126;20.638;2023-02-01T03:15:38;10.27;;;1.80;;
55993;SDS011;67425;52.126;20.638;2023-02-01T03:18:11;13.32;;;2.20;;
55993;SDS011;67425;52.126;20.638;2023-02-01T03:20:43;6.00;;;1.80;;
55993;SDS011;67425;52.126;20.638;2023-02-01T03:23:11;9.65;;;1.83;;
55993;SDS011;67425;52.126;20.638;2023-02-01T03:25:41;5.28;;;1.38;;
55993;SDS011;67425;52.126;20.638;2023-02-01T03:28:07;12.70;;;2.13;;
55993;SDS011;67425;52.126;20.638;2023-02-01T03:30:36;2.72;;;1.35;;
55993;SDS011;67425;52.126;20.638;2023-02-01T03:33:06;8.02;;;1.58;;
55993;SDS011;67425;52.126;20.638;2023-02-01T03:38:14;8.35;;;1.70;;
55993;SDS011;67425;52.126;20.638;2023-02-01T03:40:43;20.38;;;2.90;;
55993;SDS011;67425;52.126;20.638;2023-02-01T03:43:14;7.55;;;2.25;;
55993;SDS011;67425;52.126;20.638;2023-02-01T03:45:44;5.85;;;1.27;;
55993;SDS011;67425;52.126;20.638;2023-02-01T03:48:17;13.88;;;1.30;;
55993;SDS011;67425;52.126;20.638;2023-02-01T03:50:46;4.75;;;1.20;;
55993;SDS011;67425;52.126;20.638;2023-02-01T03:53:17;14.18;;;2.60;;
55993;SDS011;67425;52.126;20.638;2023-02-01T03:55:45;6.32;;;1.13;;
55993;SDS011;67425;52.126;20.638;2023-02-01T03:58:15;7.35;;;1.95;;
55993;SDS011;67425;52.126;20.638;2023-02-01T04:00:50;13.55;;;2.17;;
55993;SDS011;67425;52.126;20.638;2023-02-01T04:03:18;16.95;;;1.75;;
55993;SDS011;67425;52.126;20.638;2023-02-01T04:05:43;25.90;;;2.10;;
55993;SDS011;67425;52.126;20.638;2023-02-01T04:08:08;9.45;;;1.50;;
55993;SDS011;67425;52.126;20.638;2023-02-01T04:10:34;6.85;;;1.45;;
55993;SDS011;67425;52.126;20.638;2023-02-01T04:12:59;6.55;;;1.65;;
55993;SDS011;67425;52.126;20.638;2023-02-01T04:15:24;11.52;;;1.77;;
55993;SDS011;67425;52.126;20.638;2023-02-01T04:17:50;18.58;;;2.63;;
55993;SDS011;67425;52.126;20.638;2023-02-01T04:20:15;9.20;;;1.52;;
55993;SDS011;67425;52.126;20.638;2023-02-01T04:22:41;13.13;;;1.77;;
55993;SDS011;67425;52.126;20.638;2023-02-01T04:25:06;5.93;;;1.40;;
55993;SDS011;67425;52.126;20.638;2023-02-01T04:27:32;12.55;;;2.03;;
55993;SDS011;67425;52.126;20.638;2023-02-01T04:29:58;14.32;;;2.15;;
55993;SDS011;67425;52.126;20.638;2023-02-01T04:32:23;9.63;;;1.60;;
55993;SDS011;67425;52.126;20.638;2023-02-01T04:34:49;7.53;;;1.75;;
55993;SDS011;67425;52.126;20.638;2023-02-01T04:37:14;9.27;;;1.42;;
55993;SDS011;67425;52.126;20.638;2023-02-01T04:39:40;6.63;;;1.50;;
55993;SDS011;67425;52.126;20.638;2023-02-01T04:42:05;5.38;;;1.95;;
55993;SDS011;67425;52.126;20.638;2023-02-01T04:44:30;15.07;;;2.15;;
55993;SDS011;67425;52.126;20.638;2023-02-01T04:46:56;4.68;;;1.13;;
55993;SDS011;67425;52.126;20.638;2023-02-01T04:49:21;8.45;;;1.40;;
55993;SDS011;67425;52.126;20.638;2023-02-01T04:51:46;14.05;;;3.15;;
55993;SDS011;67425;52.126;20.638;2023-02-01T04:54:12;11.00;;;1.58;;
55993;SDS011;67425;52.126;20.638;2023-02-01T04:56:38;4.30;;;1.30;;
55993;SDS011;67425;52.126;20.638;2023-02-01T04:59:04;15.27;;;2.17;;
55993;SDS011;67425;52.126;20.638;2023-02-01T05:01:30;9.27;;;1.85;;
55993;SDS011;67425;52.126;20.638;2023-02-01T05:03:56;13.43;;;2.13;;
55993;SDS011;67425;52.126;20.638;2023-02-01T05:06:21;19.85;;;3.90;;
55993;SDS011;67425;52.126;20.638;2023-02-01T05:08:47;5.38;;;1.42;;
55993;SDS011;67425;52.126;20.638;2023-02-01T05:11:13;6.90;;;1.35;;
55993;SDS011;67425;52.126;20.638;2023-02-01T05:13:57;11.63;;;2.20;;
55993;SDS011;67425;52.126;20.638;2023-02-01T05:16:23;11.50;;;1.52;;
55993;SDS011;67425;52.126;20.638;2023-02-01T05:18:49;10.38;;;1.38;;
55993;SDS011;67425;52.126;20.638;2023-02-01T05:21:14;3.97;;;1.77;;
55993;SDS011;67425;52.126;20.638;2023-02-01T05:23:40;12.95;;;2.58;;
55993;SDS011;67425;52.126;20.638;2023-02-01T05:26:24;12.25;;;1.63;;
55993;SDS011;67425;52.126;20.638;2023-02-01T05:28:50;11.32;;;2.28;;
55993;SDS011;67425;52.126;20.638;2023-02-01T05:31:15;12.48;;;2.80;;
55993;SDS011;67425;52.126;20.638;2023-02-01T05:33:41;22.30;;;2.60;;
55993;SDS011;67425;52.126;20.638;2023-02-01T05:36:07;17.92;;;2.25;;
55993;SDS011;67425;52.126;20.638;2023-02-01T05:38:32;11.23;;;2.45;;
55993;SDS011;67425;52.126;20.638;2023-02-01T05:40:58;21.58;;;3.25;;
55993;SDS011;67425;52.126;20.638;2023-02-01T05:43:23;15.73;;;2.60;;
55993;SDS011;67425;52.126;20.638;2023-02-01T05:45:48;18.02;;;1.92;;
55993;SDS011;67425;52.126;20.638;2023-02-01T05:48:14;18.95;;;1.83;;
55993;SDS011;67425;52.126;20.638;2023-02-01T05:50:39;8.48;;;1.55;;
55993;SDS011;67425;52.126;20.638;2023-02-01T05:53:05;12.48;;;2.80;;
55993;SDS011;67425;52.126;20.638;2023-02-01T05:55:31;14.05;;;2.53;;
55993;SDS011;67425;52.126;20.638;2023-02-01T05:57:56;12.43;;;1.98;;
55993;SDS011;67425;52.126;20.638;2023-02-01T06:00:22;8.32;;;1.73;;
55993;SDS011;67425;52.126;20.638;2023-02-01T06:02:48;3.75;;;2.15;;
55993;SDS011;67425;52.126;20.638;2023-02-01T06:05:13;8.73;;;2.25;;
55993;SDS011;67425;52.126;20.638;2023-02-01T06:07:38;14.02;;;4.28;;
55993;SDS011;67425;52.126;20.638;2023-02-01T06:10:04;15.52;;;2.55;;
55993;SDS011;67425;52.126;20.638;2023-02-01T06:12:29;13.45;;;1.85;;
55993;SDS011;67425;52.126;20.638;2023-02-01T06:14:55;15.68;;;2.38;;
55993;SDS011;67425;52.126;20.638;2023-02-01T06:17:20;3.67;;;1.17;;
55993;SDS011;67425;52.126;20.638;2023-02-01T06:19:45;4.78;;;1.08;;
55993;SDS011;67425;52.126;20.638;2023-02-01T06:22:13;7.60;;;1.30;;
55993;SDS011;67425;52.126;20.638;2023-02-01T06:24:38;7.53;;;1.73;;
55993;SDS011;67425;52.126;20.638;2023-02-01T06:27:04;11.35;;;1.65;;
55993;SDS011;67425;52.126;20.638;2023-02-01T06:29:29;9.63;;;1.85;;
55993;SDS011;67425;52.126;20.638;2023-02-01T06:31:55;11.40;;;2.50;;
55993;SDS011;67425;52.126;20.638;2023-02-01T06:34:20;8.38;;;2.30;;
55993;SDS011;67425;52.126;20.638;2023-02-01T06:36:47;19.98;;;2.28;;
55993;SDS011;67425;52.126;20.638;2023-02-01T06:39:13;17.10;;;2.83;;
55993;SDS011;67425;52.126;20.638;2023-02-01T06:41:40;8.70;;;1.75;;
55993;SDS011;67425;52.126;20.638;2023-02-01T06:44:07;7.10;;;1.75;;
55993;SDS011;67425;52.126;20.638;2023-02-01T06:46:33;14.40;;;2.13;;
55993;SDS011;67425;52.126;20.638;2023-02-01T06:48:58;7.55;;;2.25;;
55993;SDS011;67425;52.126;20.638;2023-02-01T06:51:25;9.48;;;1.90;;
55993;SDS011;67425;52.126;20.638;2023-02-01T06:53:52;12.90;;;2.53;;
55993;SDS011;67425;52.126;20.638;2023-02-01T06:56:17;14.50;;;2.58;;
55993;SDS011;67425;52.126;20.638;2023-02-01T06:58:43;14.05;;;2.83;;
55993;SDS011;67425;52.126;20.638;2023-02-01T07:01:09;16.25;;;2.72;;
55993;SDS011;67425;52.126;20.638;2023-02-01T07:03:35;11.27;;;2.03;;
55993;SDS011;67425;52.126;20.638;2023-02-01T07:06:01;19.52;;;4.95;;
55993;SDS011;67425;52.126;20.638;2023-02-01T07:08:27;5.10;;;1.83;;
55993;SDS011;67425;52.126;20.638;2023-02-01T07:10:53;22.25;;;2.53;;
55993;SDS011;67425;52.126;20.638;2023-02-01T07:13:19;19.90;;;4.03;;
55993;SDS011;67425;52.126;20.638;2023-02-01T07:15:44;21.45;;;3.60;;
55993;SDS011;67425;52.126;20.638;2023-02-01T07:18:12;15.38;;;2.50;;
55993;SDS011;67425;52.126;20.638;2023-02-01T07:20:39;4.03;;;1.25;;
55993;SDS011;67425;52.126;20.638;2023-02-01T07:23:04;12.30;;;1.83;;
55993;SDS011;67425;52.126;20.638;2023-02-01T07:25:30;10.30;;;2.30;;
55993;SDS011;67425;52.126;20.638;2023-02-01T07:27:55;9.43;;;2.05;;
55993;SDS011;67425;52.126;20.638;2023-02-01T07:30:21;11.77;;;2.63;;
55993;SDS011;67425;52.126;20.638;2023-02-01T07:32:46;15.45;;;2.17;;
55993;SDS011;67425;52.126;20.638;2023-02-01T07:35:11;20.98;;;2.97;;
55993;SDS011;67425;52.126;20.638;2023-02-01T07:37:37;8.98;;;1.92;;
55993;SDS011;67425;52.126;20.638;2023-02-01T07:40:02;10.13;;;1.95;;
55993;SDS011;67425;52.126;20.638;2023-02-01T07:42:27;12.60;;;2.72;;
55993;SDS011;67425;52.126;20.638;2023-02-01T07:44:53;6.35;;;1.90;;
55993;SDS011;67425;52.126;20.638;2023-02-01T07:47:18;8.25;;;2.33;;
55993;SDS011;67425;52.126;20.638;2023-02-01T07:49:45;14.88;;;2.50;;
55993;SDS011;67425;52.126;20.638;2023-02-01T07:52:10;10.25;;;2.78;;
55993;SDS011;67425;52.126;20.638;2023-02-01T07:54:38;17.55;;;2.47;;
55993;SDS011;67425;52.126;20.638;2023-02-01T07:57:03;10.00;;;1.90;;
55993;SDS011;67425;52.126;20.638;2023-02-01T07:59:28;9.85;;;1.90;;
55993;SDS011;67425;52.126;20.638;2023-02-01T08:01:54;6.32;;;2.47;;
55993;SDS011;67425;52.126;20.638;2023-02-01T08:04:19;14.25;;;3.65;;
55993;SDS011;67425;52.126;20.638;2023-02-01T08:06:44;8.00;;;1.92;;
55993;SDS011;67425;52.126;20.638;2023-02-01T08:09:10;16.58;;;2.60;;
55993;SDS011;67425;52.126;20.638;2023-02-01T08:11:36;9.10;;;1.95;;
55993;SDS011;67425;52.126;20.638;2023-02-01T08:14:02;8.95;;;2.83;;
55993;SDS011;67425;52.126;20.638;2023-02-01T08:16:28;20.20;;;3.03;;
55993;SDS011;67425;52.126;20.638;2023-02-01T08:18:54;16.70;;;2.70;;
55993;SDS011;67425;52.126;20.638;2023-02-01T08:21:23;11.90;;;2.05;;
55993;SDS011;67425;52.126;20.638;2023-02-01T08:23:51;13.52;;;1.83;;
55993;SDS011;67425;52.126;20.638;2023-02-01T08:26:21;10.10;;;1.92;;
55993;SDS011;67425;52.126;20.638;2023-02-01T08:28:52;8.88;;;2.30;;
55993;SDS011;67425;52.126;20.638;2023-02-01T08:33:52;4.97;;;1.80;;
55993;SDS011;67425;52.126;20.638;2023-02-01T08:36:19;14.55;;;3.15;;
55993;SDS011;67425;52.126;20.638;2023-02-01T08:38:45;8.07;;;2.00;;
55993;SDS011;67425;52.126;20.638;2023-02-01T08:41:15;17.02;;;3.17;;
55993;SDS011;67425;52.126;20.638;2023-02-01T08:43:42;23.33;;;2.40;;
55993;SDS011;67425;52.126;20.638;2023-02-01T08:46:08;12.98;;;1.85;;
55993;SDS011;67425;52.126;20.638;2023-02-01T08:48:35;13.38;;;2.20;;
55993;SDS011;67425;52.126;20.638;2023-02-01T08:51:01;8.40;;;3.28;;
55993;SDS011;67425;52.126;20.638;2023-02-01T08:53:28;8.95;;;1.73;;
55993;SDS011;67425;52.126;20.638;2023-02-01T08:55:53;11.48;;;3.05;;
55993;SDS011;67425;52.126;20.638;2023-02-01T08:58:19;8.23;;;2.22;;
55993;SDS011;67425;52.126;20.638;2023-02-01T09:00:44;8.48;;;2.50;;
55993;SDS011;67425;52.126;20.638;2023-02-01T09:03:10;6.90;;;2.38;;
55993;SDS011;67425;52.126;20.638;2023-02-01T09:05:37;11.82;;;2.50;;
55993;SDS011;67425;52.126;20.638;2023-02-01T09:08:02;3.55;;;1.33;;
55993;SDS011;67425;52.126;20.638;2023-02-01T09:10:28;6.80;;;2.20;;
55993;SDS011;67425;52.126;20.638;2023-02-01T09:12:53;16.48;;;3.05;;
55993;SDS011;67425;52.126;20.638;2023-02-01T09:15:19;18.10;;;3.35;;
55993;SDS011;67425;52.126;20.638;2023-02-01T09:17:44;6.32;;;1.77;;
55993;SDS011;67425;52.126;20.638;2023-02-01T09:20:10;12.60;;;4.22;;
55993;SDS011;67425;52.126;20.638;2023-02-01T09:22:36;6.57;;;2.22;;
55993;SDS011;67425;52.126;20.638;2023-02-01T09:25:01;17.95;;;2.10;;
55993;SDS011;67425;52.126;20.638;2023-02-01T09:27:27;8.88;;;2.17;;
55993;SDS011;67425;52.126;20.638;2023-02-01T09:29:52;12.13;;;3.33;;
55993;SDS011;67425;52.126;20.638;2023-02-01T09:32:21;16.35;;;2.33;;
55993;SDS011;67425;52.126;20.638;2023-02-01T09:34:48;21.58;;;3.13;;
55993;SDS011;67425;52.126;20.638;2023-02-01T09:37:14;30.83;;;3.17;;
55993;SDS011;67425;52.126;20.638;2023-02-01T09:39:40;7.53;;;2.97;;
55993;SDS011;67425;52.126;20.638;2023-02-01T09:45:21;17.48;;;3.83;;
55993;SDS011;67425;52.126;20.638;2023-02-01T09:47:54;12.88;;;2.80;;
55993;SDS011;67425;52.126;20.638;2023-02-01T09:50:34;12.80;;;2.97;;
55993;SDS011;67425;52.126;20.638;2023-02-01T09:53:17;11.00;;;2.60;;
55993;SDS011;67425;52.126;20.638;2023-02-01T09:55:49;14.32;;;2.72;;
55993;SDS011;67425;52.126;20.638;2023-02-01T10:00:58;6.03;;;1.73;;
55993;SDS011;67425;52.126;20.638;2023-02-01T10:03:26;15.38;;;3.40;;
55993;SDS011;67425;52.126;20.638;2023-02-01T10:09:02;11.18;;;2.33;;
55993;SDS011;67425;52.126;20.638;2023-02-01T10:11:56;14.80;;;3.08;;
55993;SDS011;67425;52.126;20.638;2023-02-01T10:14:49;7.03;;;2.58;;
55993;SDS011;67425;52.126;20.638;2023-02-01T10:28:20;18.88;;;3.17;;
55993;SDS011;67425;52.126;20.638;2023-02-01T10:30:49;10.70;;;2.65;;
55993;SDS011;67425;52.126;20.638;2023-02-01T10:38:46;13.20;;;3.92;;
55993;SDS011;67425;52.126;20.638;2023-02-01T10:41:13;24.45;;;10.65;;
55993;SDS011;67425;52.126;20.638;2023-02-01T10:43:41;22.77;;;3.47;;
55993;SDS011;67425;52.126;20.638;2023-02-01T10:46:08;14.10;;;3.83;;
55993;SDS011;67425;52.126;20.638;2023-02-01T10:48:34;23.23;;;3.38;;
55993;SDS011;67425;52.126;20.638;2023-02-01T10:51:00;11.10;;;3.60;;
55993;SDS011;67425;52.126;20.638;2023-02-01T10:56:18;13.32;;;2.70;;
55993;SDS011;67425;52.126;20.638;2023-02-01T10:58:50;14.63;;;2.92;;
55993;SDS011;67425;52.126;20.638;2023-02-01T11:06:40;17.42;;;4.43;;
55993;SDS011;67425;52.126;20.638;2023-02-01T11:14:14;10.80;;;2.85;;
55993;SDS011;67425;52.126;20.638;2023-02-01T11:16:52;9.38;;;2.63;;
55993;SDS011;67425;52.126;20.638;2023-02-01T11:19:25;12.93;;;3.53;;
55993;SDS011;67425;52.126;20.638;2023-02-01T11:21:55;11.70;;;2.38;;
55993;SDS011;67425;52.126;20.638;2023-02-01T11:24:23;16.15;;;2.83;;
55993;SDS011;67425;52.126;20.638;2023-02-01T11:26:53;12.23;;;2.60;;
55993;SDS011;67425;52.126;20.638;2023-02-01T11:29:20;7.22;;;2.80;;
55993;SDS011;67425;52.126;20.638;2023-02-01T11:31:53;21.75;;;4.03;;
55993;SDS011;67425;52.126;20.638;2023-02-01T11:34:22;6.43;;;2.30;;
55993;SDS011;67425;52.126;20.638;2023-02-01T11:36:51;10.57;;;2.55;;
55993;SDS011;67425;52.126;20.638;2023-02-01T11:39:31;10.57;;;2.10;;
55993;SDS011;67425;52.126;20.638;2023-02-01T11:42:00;17.35;;;3.50;;
55993;SDS011;67425;52.126;20.638;2023-02-01T11:50:11;20.58;;;4.82;;
55993;SDS011;67425;52.126;20.638;2023-02-01T11:53:01;21.38;;;5.85;;
55993;SDS011;67425;52.126;20.638;2023-02-01T12:04:15;25.00;;;4.13;;
55993;SDS011;67425;52.126;20.638;2023-02-01T12:07:11;18.52;;;4.07;;
55993;SDS011;67425;52.126;20.638;2023-02-01T12:09:49;13.00;;;3.67;;
55993;SDS011;67425;52.126;20.638;2023-02-01T12:29:15;12.30;;;2.78;;
55993;SDS011;67425;52.126;20.638;2023-02-01T12:35:12;15.18;;;4.47;;
55993;SDS011;67425;52.126;20.638;2023-02-01T12:43:18;16.50;;;4.32;;
55993;SDS011;67425;52.126;20.638;2023-02-01T12:46:01;16.17;;;4.53;;
55993;SDS011;67425;52.126;20.638;2023-02-01T12:48:33;26.77;;;5.95;;
55993;SDS011;67425;52.126;20.638;2023-02-01T12:51:09;19.52;;;3.63;;
55993;SDS011;67425;52.126;20.638;2023-02-01T12:56:15;22.45;;;5.85;;
55993;SDS011;67425;52.126;20.638;2023-02-01T12:59:04;13.38;;;3.45;;
55993;SDS011;67425;52.126;20.638;2023-02-01T13:01:42;22.95;;;4.43;;
55993;SDS011;67425;52.126;20.638;2023-02-01T13:04:18;18.42;;;4.30;;
55993;SDS011;67425;52.126;20.638;2023-02-01T13:06:53;16.50;;;4.75;;
55993;SDS011;67425;52.126;20.638;2023-02-01T13:09:26;19.55;;;4.28;;
55993;SDS011;67425;52.126;20.638;2023-02-01T13:11:59;20.27;;;3.88;;
55993;SDS011;67425;52.126;20.638;2023-02-01T13:14:46;14.27;;;3.22;;
55993;SDS011;67425;52.126;20.638;2023-02-01T13:17:27;16.70;;;4.00;;
55993;SDS011;67425;52.126;20.638;2023-02-01T13:20:05;11.57;;;3.85;;
55993;SDS011;67425;52.126;20.638;2023-02-01T13:22:42;9.80;;;2.58;;
55993;SDS011;67425;52.126;20.638;2023-02-01T13:25:13;13.35;;;6.07;;
55993;SDS011;67425;52.126;20.638;2023-02-01T13:27:41;10.82;;;4.47;;
55993;SDS011;67425;52.126;20.638;2023-02-01T13:30:23;23.75;;;6.47;;
55993;SDS011;67425;52.126;20.638;2023-02-01T13:35:47;14.60;;;5.40;;
55993;SDS011;67425;52.126;20.638;2023-02-01T13:43:52;10.55;;;4.00;;
55993;SDS011;67425;52.126;20.638;2023-02-01T13:46:20;16.75;;;4.88;;
55993;SDS011;67425;52.126;20.638;2023-02-01T13:51:14;14.70;;;4.63;;
55993;SDS011;67425;52.126;20.638;2023-02-01T13:53:48;9.93;;;3.55;;
55993;SDS011;67425;52.126;20.638;2023-02-01T13:56:17;15.18;;;4.45;;
55993;SDS011;67425;52.126;20.638;2023-02-01T13:58:45;10.73;;;3.88;;
55993;SDS011;67425;52.126;20.638;2023-02-01T14:03:47;11.00;;;3.50;;
55993;SDS011;67425;52.126;20.638;2023-02-01T14:11:34;18.15;;;4.30;;
55993;SDS011;67425;52.126;20.638;2023-02-01T14:16:39;12.27;;;2.75;;
55993;SDS011;67425;52.126;20.638;2023-02-01T14:19:07;2.63;;;2.08;;
55993;SDS011;67425;52.126;20.638;2023-02-01T14:21:47;6.70;;;2.90;;
55993;SDS011;67425;52.126;20.638;2023-02-01T14:24:29;7.13;;;3.15;;
55993;SDS011;67425;52.126;20.638;2023-02-01T14:26:59;8.43;;;2.70;;
55993;SDS011;67425;52.126;20.638;2023-02-01T14:29:40;7.90;;;2.20;;
55993;SDS011;67425;52.126;20.638;2023-02-01T14:32:16;2.75;;;2.20;;
55993;SDS011;67425;52.126;20.638;2023-02-01T14:37:23;6.20;;;3.08;;
55993;SDS011;67425;52.126;20.638;2023-02-01T14:39:51;7.10;;;3.40;;
55993;SDS011;67425;52.126;20.638;2023-02-01T14:55:43;13.52;;;3.10;;
55993;SDS011;67425;52.126;20.638;2023-02-01T15:00:59;6.75;;;3.40;;
55993;SDS011;67425;52.126;20.638;2023-02-01T15:09:14;8.98;;;3.72;;
55993;SDS011;67425;52.126;20.638;2023-02-01T15:14:24;7.90;;;4.50;;
55993;SDS011;67425;52.126;20.638;2023-02-01T15:16:50;7.47;;;3.80;;
55993;SDS011;67425;52.126;20.638;2023-02-01T15:19:19;14.13;;;5.03;;
55993;SDS011;67425;52.126;20.638;2023-02-01T15:21:50;6.35;;;3.00;;
55993;SDS011;67425;52.126;20.638;2023-02-01T15:24:19;9.10;;;3.78;;
55993;SDS011;67425;52.126;20.638;2023-02-01T15:26:53;6.75;;;3.67;;
55993;SDS011;67425;52.126;20.638;2023-02-01T15:29:20;14.80;;;3.60;;
55993;SDS011;67425;52.126;20.638;2023-02-01T15:31:48;6.78;;;4.60;;
55993;SDS011;67425;52.126;20.638;2023-02-01T15:34:15;5.22;;;3.03;;
55993;SDS011;67425;52.126;20.638;2023-02-01T15:36:41;14.35;;;3.65;;
55993;SDS011;67425;52.126;20.638;2023-02-01T15:39:23;3.15;;;2.75;;
55993;SDS011;67425;52.126;20.638;2023-02-01T15:41:57;6.38;;;3.28;;
55993;SDS011;67425;52.126;20.638;2023-02-01T15:44:29;5.78;;;3.03;;
55993;SDS011;67425;52.126;20.638;2023-02-01T15:46:55;8.38;;;3.63;;
55993;SDS011;67425;52.126;20.638;2023-02-01T15:49:23;8.20;;;3.70;;
55993;SDS011;67425;52.126;20.638;2023-02-01T15:51:52;6.22;;;3.30;;
55993;SDS011;67425;52.126;20.638;2023-02-01T15:54:23;12.35;;;3.97;;
55993;SDS011;67425;52.126;20.638;2023-02-01T15:56:53;9.52;;;3.67;;
55993;SDS011;67425;52.126;20.638;2023-02-01T15:59:21;6.00;;;3.60;;
55993;SDS011;67425;52.126;20.638;2023-02-01T16:01:50;6.22;;;2.45;;
55993;SDS011;67425;52.126;20.638;2023-02-01T16:04:26;5.10;;;3.45;;
55993;SDS011;67425;52.126;20.638;2023-02-01T16:07:01;10.18;;;2.72;;
55993;SDS011;67425;52.126;20.638;2023-02-01T16:09:37;8.57;;;3.83;;
55993;SDS011;67425;52.126;20.638;2023-02-01T16:12:23;4.43;;;3.15;;
55993;SDS011;67425;52.126;20.638;2023-02-01T16:14:55;9.05;;;3.38;;
55993;SDS011;67425;52.126;20.638;2023-02-01T16:17:20;8.02;;;3.92;;
55993;SDS011;67425;52.126;20.638;2023-02-01T16:19:45;8.13;;;5.03;;
55993;SDS011;67425;52.126;20.638;2023-02-01T16:22:11;12.57;;;5.05;;
55993;SDS011;67425;52.126;20.638;2023-02-01T16:24:36;8.25;;;4.75;;
55993;SDS011;67425;52.126;20.638;2023-02-01T16:27:01;14.40;;;5.30;;
55993;SDS011;67425;52.126;20.638;2023-02-01T16:29:27;11.13;;;4.25;;
55993;SDS011;67425;52.126;20.638;2023-02-01T16:31:53;10.85;;;3.53;;
55993;SDS011;67425;52.126;20.638;2023-02-01T16:34:18;4.88;;;3.53;;
55993;SDS011;67425;52.126;20.638;2023-02-01T16:36:47;15.50;;;4.68;;
55993;SDS011;67425;52.126;20.638;2023-02-01T16:39:18;11.88;;;3.17;;
55993;SDS011;67425;52.126;20.638;2023-02-01T16:41:44;11.80;;;4.68;;
55993;SDS011;67425;52.126;20.638;2023-02-01T16:44:10;10.30;;;5.18;;
55993;SDS011;67425;52.126;20.638;2023-02-01T16:46:40;7.53;;;2.90;;
55993;SDS011;67425;52.126;20.638;2023-02-01T16:49:16;8.13;;;4.15;;
55993;SDS011;67425;52.126;20.638;2023-02-01T16:51:45;11.95;;;4.43;;
55993;SDS011;67425;52.126;20.638;2023-02-01T16:54:12;7.88;;;4.00;;
55993;SDS011;67425;52.126;20.638;2023-02-01T16:56:37;6.25;;;3.17;;
55993;SDS011;67425;52.126;20.638;2023-02-01T16:59:06;8.77;;;3.95;;
55993;SDS011;67425;52.126;20.638;2023-02-01T17:01:33;5.30;;;2.92;;
55993;SDS011;67425;52.126;20.638;2023-02-01T17:03:59;8.32;;;3.67;;
55993;SDS011;67425;52.126;20.638;2023-02-01T17:06:25;24.35;;;14.00;;
55993;SDS011;67425;52.126;20.638;2023-02-01T17:08:53;9.50;;;4.28;;
55993;SDS011;67425;52.126;20.638;2023-02-01T17:11:20;13.05;;;4.20;;
55993;SDS011;67425;52.126;20.638;2023-02-01T17:13:46;11.95;;;5.10;;
55993;SDS011;67425;52.126;20.638;2023-02-01T17:18:43;15.50;;;4.32;;
55993;SDS011;67425;52.126;20.638;2023-02-01T17:21:09;13.32;;;6.05;;
55993;SDS011;67425;52.126;20.638;2023-02-01T17:23:35;23.67;;;11.18;;
55993;SDS011;67425;52.126;20.638;2023-02-01T17:26:01;17.30;;;8.77;;